Arnoldsville, Georgia
Current Conditions -  °F | °C
As of 5:51 AM on Thursday 18 Dec 2014 (Local Time) from KAHN Reporting Station
Clear Clear  
Wind Chill: 32°   Ceiling: Unl
Heat Index: 37°   Visibility: 10mi
Dew Point: 32°   Wind: 6mph
Humidity: 82%   Direction: 300°WNW
Pressure: 30.11"   Gusts: NA
Location:  33.91°N, 83.22°W
Report Text: KAHN 181051Z AUTO 30005KT 10SM CLR 03/00 A3011 RMK AO2 SLP199 T00280000
Loading
Personal Weather Stations






























Interactive Weather Map New forecast layout! Learn more

10-Day Weather Forecast

Advertisements
Track Severe Weather on mobile